createdAt,value
2022-08-07T00:00:40.634Z,0.36
2022-08-07T00:02:35.709Z,0.49
2022-08-07T00:02:46.054Z,0.43
2022-08-07T00:03:48.974Z,0.32
2022-08-07T00:04:51.069Z,0.33
2022-08-07T00:05:54.244Z,0.27
2022-08-07T00:06:56.056Z,0.44
2022-08-07T00:07:58.424Z,0.19
2022-08-07T00:09:00.125Z,0.29
2022-08-07T00:10:19.592Z,0.34
2022-08-07T00:11:04.871Z,0.27
2022-08-07T00:12:06.067Z,0.44
2022-08-07T00:13:09.990Z,0.37
2022-08-07T00:14:10.100Z,0.12
2022-08-07T00:15:12.134Z,0.24
2022-08-07T00:16:14.319Z,0.23
2022-08-07T00:17:16.079Z,0.52
2022-08-07T00:18:18.988Z,0.2
2022-08-07T00:19:21.440Z,0.32
2022-08-07T00:20:29.503Z,0.31
2022-08-07T00:21:55.649Z,0.14
2022-08-07T00:22:34.996Z,0.32
2022-08-07T00:23:30.128Z,0.33
2022-08-07T00:24:31.538Z,0.26
2022-08-07T00:25:37.328Z,0.43
2022-08-07T00:26:48.993Z,0.42
2022-08-07T00:27:51.991Z,0.32
2022-08-07T00:28:41.794Z,0.37
2022-08-07T00:29:41.089Z,0.23
2022-08-07T00:30:43.102Z,0.11
2022-08-07T00:31:45.572Z,0.45
2022-08-07T00:32:48.005Z,0.23
2022-08-07T00:33:50.107Z,0.21
2022-08-07T00:34:52.093Z,0.2
2022-08-07T00:35:54.104Z,0.16
2022-08-07T00:36:56.125Z,0.21
2022-08-07T00:37:58.133Z,0.23
2022-08-07T00:39:00.187Z,0
2022-08-07T00:40:02.174Z,0.18
2022-08-07T00:41:04.089Z,0.31
2022-08-07T00:42:06.100Z,0.21
2022-08-07T00:43:09.583Z,0.23
2022-08-07T00:44:10.093Z,0.22
2022-08-07T00:45:16.095Z,0.23
2022-08-07T00:46:14.839Z,0.23
2022-08-07T00:48:05.226Z,0.25
2022-08-07T00:48:18.342Z,0.13
2022-08-07T00:49:24.580Z,0.25
2022-08-07T00:50:46.447Z,0.26
2022-08-07T00:51:24.131Z,0.26
2022-08-07T00:52:26.381Z,0.32
2022-08-07T00:53:38.728Z,0
2022-08-07T00:54:30.142Z,0
2022-08-07T00:56:00.958Z,0.17
2022-08-07T00:56:34.149Z,0.2
2022-08-07T00:57:36.255Z,0.25
2022-08-07T00:58:38.173Z,0.15
2022-08-07T00:59:40.137Z,0.05
2022-08-07T01:00:51.421Z,0.07
2022-08-07T01:01:44.890Z,0
2022-08-07T01:02:46.171Z,0
2022-08-07T01:03:54.998Z,0.4
2022-08-07T01:04:50.166Z,0.22
2022-08-07T01:05:53.673Z,0.2
2022-08-07T01:06:55.217Z,0.25
2022-08-07T01:07:57.268Z,0.51
2022-08-07T01:09:00.591Z,0.34
2022-08-07T01:10:04.051Z,0.3
2022-08-07T01:12:05.561Z,0.31
2022-08-07T01:12:10.266Z,0.13
2022-08-07T01:13:07.215Z,0.14
2022-08-07T01:14:09.187Z,0.18
2022-08-07T01:15:11.844Z,0
2022-08-07T01:16:13.192Z,0.47
2022-08-07T01:17:15.186Z,0.3
2022-08-07T01:18:17.588Z,0.1
2022-08-07T01:19:19.768Z,0.22
2022-08-07T01:20:21.363Z,0.26
2022-08-07T01:21:25.843Z,0.17
2022-08-07T01:22:29.009Z,0
2022-08-07T01:23:34.627Z,0.11
2022-08-07T01:24:29.176Z,0
2022-08-07T01:25:40.158Z,0.08
2022-08-07T01:26:33.170Z,0.12
2022-08-07T01:27:35.472Z,0.07
2022-08-07T01:28:37.185Z,0.31
2022-08-07T01:29:39.729Z,0.19
2022-08-07T01:30:41.197Z,0.13
2022-08-07T01:31:46.160Z,0.31
2022-08-07T01:32:45.194Z,0.14
2022-08-07T01:33:53.830Z,0.1
2022-08-07T01:34:49.329Z,0.15
2022-08-07T01:35:52.994Z,0
2022-08-07T01:36:57.815Z,0.2
2022-08-07T01:37:55.234Z,0.18
2022-08-07T01:38:57.307Z,0.13
2022-08-07T01:39:59.276Z,0
2022-08-07T01:41:01.205Z,0.31
2022-08-07T01:42:07.809Z,0.08
2022-08-07T01:43:05.210Z,0
2022-08-07T01:44:07.254Z,0
2022-08-07T01:45:09.916Z,0
2022-08-07T01:46:12.207Z,0.05
2022-08-07T01:47:14.731Z,0.15
2022-08-07T01:48:18.782Z,0.14
2022-08-07T01:49:17.257Z,0.19
2022-08-07T01:50:22.858Z,0.1
2022-08-07T01:51:24.798Z,0
2022-08-07T01:52:23.227Z,0.24
2022-08-07T01:54:00.844Z,0.27
2022-08-07T01:54:32.736Z,0.27
2022-08-07T01:55:29.243Z,0
2022-08-07T01:56:32.806Z,0
2022-08-07T01:57:34.197Z,0
2022-08-07T01:58:37.442Z,0
2022-08-07T01:59:37.269Z,0
2022-08-07T02:00:45.511Z,0
2022-08-07T02:01:59.513Z,0
2022-08-07T02:03:12.862Z,0
2022-08-07T02:03:48.651Z,0.25
2022-08-07T02:04:52.770Z,0.14
2022-08-07T02:05:55.310Z,0.38
2022-08-07T02:06:51.245Z,0.26
2022-08-07T02:07:53.470Z,0.26
2022-08-07T02:08:55.254Z,0
2022-08-07T02:09:58.353Z,0
2022-08-07T02:10:59.271Z,0.37
2022-08-07T02:12:03.143Z,0.17
2022-08-07T02:13:03.256Z,0.26
2022-08-07T02:14:05.249Z,0.1
2022-08-07T02:15:07.296Z,0.2
2022-08-07T02:16:09.259Z,0.14
2022-08-07T02:17:11.304Z,0.13
2022-08-07T02:18:13.262Z,0.18
2022-08-07T02:20:05.961Z,0.14
2022-08-07T02:20:20.001Z,0
2022-08-07T02:21:19.265Z,0
2022-08-07T02:22:21.262Z,0
2022-08-07T02:23:23.839Z,0
2022-08-07T02:24:25.255Z,0
2022-08-07T02:25:32.294Z,0
2022-08-07T02:26:32.282Z,0
2022-08-07T02:27:34.522Z,0
2022-08-07T02:28:33.274Z,0
2022-08-07T02:29:36.966Z,0
2022-08-07T02:30:37.376Z,0
2022-08-07T02:31:39.308Z,0.23
2022-08-07T02:33:00.830Z,0.15
2022-08-07T02:34:03.350Z,0.07
2022-08-07T02:34:48.867Z,0
2022-08-07T02:36:26.764Z,0
2022-08-07T02:36:49.286Z,0.11
2022-08-07T02:37:51.295Z,0
2022-08-07T02:38:56.659Z,0
2022-08-07T02:40:01.823Z,0
2022-08-07T02:40:57.567Z,0
2022-08-07T02:41:59.322Z,0
2022-08-07T02:43:01.324Z,0
2022-08-07T02:44:03.283Z,0
2022-08-07T02:45:07.407Z,0
2022-08-07T02:46:07.338Z,0
2022-08-07T02:47:19.151Z,0
2022-08-07T02:48:15.421Z,0
2022-08-07T02:49:29.014Z,0
2022-08-07T02:50:18.403Z,0
2022-08-07T02:51:29.128Z,0
2022-08-07T02:52:21.589Z,0
2022-08-07T02:53:23.346Z,0
2022-08-07T02:54:25.371Z,0
2022-08-07T02:56:02.890Z,0
2022-08-07T02:56:29.324Z,0
2022-08-07T02:57:34.279Z,0
2022-08-07T02:58:33.838Z,0
2022-08-07T02:59:35.317Z,0
2022-08-07T03:00:39.060Z,0
2022-08-07T03:01:39.926Z,0
2022-08-07T03:02:42.003Z,0
2022-08-07T03:03:48.964Z,0
2022-08-07T03:04:45.352Z,0
2022-08-07T03:05:47.398Z,0
2022-08-07T03:06:49.323Z,0
2022-08-07T03:08:04.772Z,0
2022-08-07T03:08:53.355Z,0
2022-08-07T03:09:55.364Z,0
2022-08-07T03:10:58.185Z,0
2022-08-07T03:12:02.561Z,0
2022-08-07T03:13:01.345Z,0
2022-08-07T03:14:03.379Z,0
2022-08-07T03:15:07.426Z,0
2022-08-07T03:16:07.356Z,0
2022-08-07T03:17:09.355Z,0
2022-08-07T03:18:11.356Z,0
2022-08-07T03:19:13.672Z,0
2022-08-07T03:20:15.344Z,0.2
2022-08-07T03:21:18.983Z,0
2022-08-07T03:22:19.365Z,0
2022-08-07T03:23:21.376Z,0
2022-08-07T03:24:26.791Z,0
2022-08-07T03:25:25.523Z,0
2022-08-07T03:26:27.370Z,0
2022-08-07T03:27:30.157Z,0
2022-08-07T03:28:37.123Z,0.05
2022-08-07T03:29:33.670Z,0.37
2022-08-07T03:30:35.412Z,0.15
2022-08-07T03:31:42.979Z,0
2022-08-07T03:32:39.394Z,0
2022-08-07T03:33:41.469Z,0.14
2022-08-07T03:34:47.052Z,0
2022-08-07T03:35:50.305Z,0.21
2022-08-07T03:36:47.392Z,0
2022-08-07T03:37:53.415Z,0
2022-08-07T03:38:51.389Z,0
2022-08-07T03:40:00.275Z,0
2022-08-07T03:40:57.083Z,0
2022-08-07T03:41:57.400Z,0
2022-08-07T03:42:59.396Z,0
2022-08-07T03:44:04.158Z,0
2022-08-07T03:45:05.405Z,0
2022-08-07T03:46:10.289Z,0
2022-08-07T03:47:10.585Z,0
2022-08-07T03:48:11.663Z,0
2022-08-07T03:49:13.419Z,0.24
2022-08-07T03:50:15.401Z,0.23
2022-08-07T03:51:17.404Z,0.31
2022-08-07T03:52:23.036Z,0.14
2022-08-07T03:53:50.271Z,0
2022-08-07T03:54:33.975Z,0.16
2022-08-07T03:55:46.130Z,0.19
2022-08-07T03:56:32.939Z,0.19
2022-08-07T03:58:32.766Z,0
2022-08-07T03:58:35.715Z,0
2022-08-07T03:59:33.400Z,0
2022-08-07T04:00:36.506Z,0.29
2022-08-07T04:01:37.474Z,0.16
2022-08-07T04:02:41.240Z,0.16
2022-08-07T04:03:50.038Z,0.42
2022-08-07T04:04:45.187Z,0.21
2022-08-07T04:05:45.523Z,0.13
2022-08-07T04:06:51.071Z,0.2
2022-08-07T04:07:49.651Z,0.27
2022-08-07T04:08:51.441Z,0.12
2022-08-07T04:09:53.436Z,0
2022-08-07T04:11:14.996Z,0
2022-08-07T04:12:15.494Z,0
2022-08-07T04:12:59.509Z,0
2022-08-07T04:14:09.833Z,0
2022-08-07T04:15:05.026Z,0
2022-08-07T04:16:05.434Z,0
2022-08-07T04:17:16.538Z,0
2022-08-07T04:18:32.092Z,0
2022-08-07T04:19:12.539Z,0
2022-08-07T04:20:13.468Z,0
2022-08-07T04:21:15.457Z,0
2022-08-07T04:22:17.700Z,0
2022-08-07T04:23:19.647Z,0
2022-08-07T04:24:26.824Z,0
2022-08-07T04:25:23.562Z,0.35
2022-08-07T04:26:28.461Z,0.11
2022-08-07T04:27:27.543Z,0
2022-08-07T04:28:29.457Z,0
2022-08-07T04:29:40.505Z,0.27
2022-08-07T04:30:36.156Z,0.28
2022-08-07T04:31:39.325Z,0.04
2022-08-07T04:32:37.469Z,0.13
2022-08-07T04:33:39.454Z,0.14
2022-08-07T04:34:41.542Z,0
2022-08-07T04:35:43.455Z,0
2022-08-07T04:36:45.499Z,0.23
2022-08-07T04:37:52.982Z,0.14
2022-08-07T04:38:49.481Z,0.23
2022-08-07T04:39:51.580Z,0.11
2022-08-07T04:40:56.606Z,0
2022-08-07T04:41:55.482Z,0
2022-08-07T04:43:02.312Z,0.11
2022-08-07T04:44:10.898Z,0
2022-08-07T04:45:02.757Z,0.25
2022-08-07T04:46:03.503Z,0
2022-08-07T04:47:08.033Z,0.22
2022-08-07T04:48:10.790Z,0.3
2022-08-07T04:49:14.993Z,0.22
2022-08-07T04:50:11.483Z,0
2022-08-07T04:51:14.109Z,0.17
2022-08-07T04:52:15.529Z,0.22
2022-08-07T04:53:27.875Z,0.26
2022-08-07T04:54:19.511Z,0.37
2022-08-07T04:58:08.397Z,0.26
2022-08-07T04:58:08.448Z,0.27
2022-08-07T04:58:08.536Z,0.22
2022-08-07T04:58:47.343Z,0.14
2022-08-07T05:00:08.090Z,0.17
2022-08-07T05:00:32.478Z,0.12
2022-08-07T05:01:33.631Z,0.18
2022-08-07T05:02:35.561Z,0.19
2022-08-07T05:03:38.972Z,0
2022-08-07T05:04:44.061Z,0.25
2022-08-07T05:05:52.327Z,0.42
2022-08-07T05:06:51.367Z,0.16
2022-08-07T05:07:48.116Z,0.13
2022-08-07T05:09:00.380Z,0.21
2022-08-07T05:09:49.558Z,0.14
2022-08-07T05:10:58.495Z,0.21
2022-08-07T05:11:56.599Z,0.16
2022-08-07T05:12:58.550Z,0.16
2022-08-07T05:14:45.225Z,0.32
2022-08-07T05:15:04.057Z,0.29
2022-08-07T05:16:04.651Z,0.1
2022-08-07T05:17:05.835Z,0.35
2022-08-07T05:18:06.314Z,0.08
2022-08-07T05:19:07.544Z,0
2022-08-07T05:20:09.918Z,0
2022-08-07T05:21:11.539Z,0.23
2022-08-07T05:22:13.617Z,0.17
2022-08-07T05:23:16.320Z,0.32
2022-08-07T05:24:17.573Z,0.12
2022-08-07T05:25:25.432Z,0.28
2022-08-07T05:26:23.546Z,0
2022-08-07T05:28:02.288Z,0.2
2022-08-07T05:28:26.668Z,0.19
2022-08-07T05:29:27.826Z,0
2022-08-07T05:30:30.055Z,0
2022-08-07T05:31:34.881Z,0
2022-08-07T05:32:33.616Z,0.31
2022-08-07T05:33:36.878Z,0.11
2022-08-07T05:34:37.561Z,0.29
2022-08-07T05:35:41.654Z,0.24
2022-08-07T05:36:41.558Z,0.63
2022-08-07T05:37:43.629Z,0.23
2022-08-07T05:38:58.522Z,0.14
2022-08-07T05:40:06.245Z,0.12
2022-08-07T05:40:51.880Z,0.08
2022-08-07T05:42:01.017Z,0
2022-08-07T05:42:54.836Z,0.61
2022-08-07T05:44:08.870Z,0.34
2022-08-07T05:45:04.614Z,0.28
2022-08-07T05:46:00.559Z,0.51
2022-08-07T05:47:11.833Z,0.32
2022-08-07T05:48:05.044Z,0.3
2022-08-07T05:49:08.989Z,0.37
2022-08-07T05:50:08.602Z,0.85
2022-08-07T05:51:10.583Z,0.51
2022-08-07T05:52:12.619Z,0.43
2022-08-07T05:54:08.423Z,0.1
2022-08-07T05:54:30.444Z,0.39
2022-08-07T05:55:18.593Z,0.2
2022-08-07T05:56:20.614Z,0.35
2022-08-07T05:57:22.608Z,0.69
2022-08-07T05:58:36.467Z,0.28
2022-08-07T05:59:27.350Z,0.33
2022-08-07T06:00:28.632Z,0.31
2022-08-07T06:01:34.716Z,0.62
2022-08-07T06:02:32.690Z,0.17
2022-08-07T06:03:54.112Z,0.4
2022-08-07T06:04:36.607Z,0.17
2022-08-07T06:05:40.579Z,0.22
2022-08-07T06:06:46.018Z,0.53
2022-08-07T06:08:09.109Z,0.16
2022-08-07T06:08:44.880Z,0.75
2022-08-07T06:10:04.919Z,0.69
2022-08-07T06:10:51.467Z,0.4
2022-08-07T06:11:50.732Z,0.27
2022-08-07T06:12:52.674Z,0.22
2022-08-07T06:14:11.024Z,0.31
2022-08-07T06:14:58.671Z,0.1
2022-08-07T06:15:58.716Z,0
2022-08-07T06:17:00.636Z,0.38
2022-08-07T06:18:02.663Z,0.3
2022-08-07T06:19:06.547Z,0.09
2022-08-07T06:20:06.642Z,0.26
2022-08-07T06:22:12.181Z,0.59
2022-08-07T06:22:12.414Z,0.85
2022-08-07T06:23:25.340Z,0.94
2022-08-07T06:24:37.383Z,0.53
2022-08-07T06:25:16.639Z,0.35
2022-08-07T06:26:18.691Z,0.45
2022-08-07T06:27:22.882Z,0.2
2022-08-07T06:28:27.836Z,0.37
2022-08-07T06:29:24.700Z,0.58
2022-08-07T06:30:36.308Z,0.59
2022-08-07T06:31:38.731Z,0.42
2022-08-07T06:32:32.621Z,0.37
2022-08-07T06:33:33.025Z,0.34
2022-08-07T06:34:34.647Z,0.72
2022-08-07T06:35:39.267Z,0.44
2022-08-07T06:36:38.653Z,0.53
2022-08-07T06:37:43.353Z,0.51
2022-08-07T06:38:51.508Z,0.68
2022-08-07T06:40:14.200Z,0.15
2022-08-07T06:40:46.723Z,0.34
2022-08-07T06:42:01.323Z,0.26
2022-08-07T06:42:55.697Z,0.38
2022-08-07T06:43:59.341Z,0.22
2022-08-07T06:44:59.676Z,0.13
2022-08-07T06:46:03.971Z,0.26
2022-08-07T06:47:28.885Z,0.46
2022-08-07T06:48:38.704Z,0.53
2022-08-07T06:49:58.811Z,0.6
2022-08-07T06:51:15.820Z,0.3
2022-08-07T06:52:18.702Z,0.22
2022-08-07T06:54:12.271Z,0.22
2022-08-07T06:55:30.644Z,0.35
2022-08-07T06:55:30.917Z,0.1
2022-08-07T06:56:29.432Z,0.27
2022-08-07T06:57:39.515Z,0.43
2022-08-07T07:00:10.928Z,0.23
2022-08-07T07:00:11.296Z,0.22
2022-08-07T07:00:52.874Z,0.28
2022-08-07T07:01:53.725Z,0.49
2022-08-07T07:02:57.420Z,0.43
2022-08-07T07:04:08.333Z,0.25
2022-08-07T07:05:03.052Z,0.38
2022-08-07T07:06:06.332Z,0.37
2022-08-07T07:07:10.576Z,0.38
2022-08-07T07:08:10.167Z,0.39
2022-08-07T07:09:10.808Z,0.62
2022-08-07T07:10:12.711Z,0.34
2022-08-07T07:12:07.345Z,0.18
2022-08-07T07:12:21.718Z,0.3
2022-08-07T07:13:41.544Z,0.17
2022-08-07T07:14:21.694Z,0.35
2022-08-07T07:15:23.713Z,0.52
2022-08-07T07:16:27.390Z,0.31
2022-08-07T07:17:28.762Z,0.46
2022-08-07T07:18:33.163Z,0.2
2022-08-07T07:19:54.879Z,0.25
2022-08-07T07:20:32.742Z,0.48
2022-08-07T07:21:40.613Z,0.73
2022-08-07T07:22:42.387Z,0.75
2022-08-07T07:24:05.258Z,0.68
2022-08-07T07:24:42.888Z,0.98
2022-08-07T07:26:30.983Z,0.41
2022-08-07T07:26:49.780Z,0.43
2022-08-07T07:27:55.895Z,0.55
2022-08-07T07:29:38.817Z,0.47
2022-08-07T07:29:57.639Z,0.58
2022-08-07T07:30:52.818Z,0.56
2022-08-07T07:31:54.771Z,0.69
2022-08-07T07:32:56.792Z,0.42
2022-08-07T07:33:58.755Z,0.35
2022-08-07T07:35:00.769Z,0.37
2022-08-07T07:36:05.178Z,0.47
2022-08-07T07:37:05.363Z,0.41
2022-08-07T07:38:07.044Z,0.83
2022-08-07T07:39:08.825Z,0.75
2022-08-07T07:40:15.016Z,0.93
2022-08-07T07:41:12.806Z,0.44
2022-08-07T07:42:17.333Z,0.49
2022-08-07T07:43:18.617Z,0.33
2022-08-07T07:44:21.726Z,0.35
2022-08-07T07:45:21.034Z,0.63
2022-08-07T07:46:36.203Z,0.58
2022-08-07T07:47:24.892Z,0.74
2022-08-07T07:48:35.473Z,0.45
2022-08-07T07:50:32.054Z,0.73
2022-08-07T07:50:38.439Z,0.66
2022-08-07T07:51:32.841Z,0.4
2022-08-07T07:52:34.817Z,0.4
2022-08-07T07:53:37.684Z,0.47
2022-08-07T07:54:39.901Z,0.51
2022-08-07T07:55:45.415Z,0.59
2022-08-07T07:56:42.801Z,1.02
2022-08-07T07:57:53.588Z,0.49
2022-08-07T07:58:46.861Z,0.34
2022-08-07T07:59:51.513Z,0.57
2022-08-07T08:00:54.000Z,0.45
2022-08-07T08:02:01.067Z,0.58
2022-08-07T08:03:01.438Z,0.57
2022-08-07T08:04:06.832Z,0.29
2022-08-07T08:04:59.145Z,0.59
2022-08-07T08:06:00.865Z,0.51
2022-08-07T08:07:07.642Z,0.4
2022-08-07T08:08:04.859Z,0.46
2022-08-07T08:09:06.839Z,0.46
2022-08-07T08:10:08.906Z,0.85
2022-08-07T08:11:13.453Z,0.5
2022-08-07T08:12:19.254Z,0.41
2022-08-07T08:16:29.550Z,0.71
2022-08-07T08:21:00.730Z,0.56
2022-08-07T08:22:03.796Z,0.5
2022-08-07T08:23:04.703Z,0.41
2022-08-07T08:24:06.721Z,0.72
2022-08-07T08:25:19.104Z,0.43
2022-08-07T08:26:10.737Z,0.69
2022-08-07T08:27:12.717Z,0.45
2022-08-07T08:28:16.759Z,0.43
2022-08-07T08:29:16.704Z,0.47
2022-08-07T08:30:19.681Z,0.58
2022-08-07T08:31:23.014Z,0.85
2022-08-07T08:32:25.007Z,0.65
2022-08-07T08:33:24.713Z,0.62
2022-08-07T08:34:29.094Z,0.59
2022-08-07T08:35:39.155Z,0.36
2022-08-07T08:36:30.735Z,0.39
2022-08-07T08:40:57.531Z,0.71
2022-08-07T08:41:59.916Z,0.88
2022-08-07T08:43:01.754Z,1.03
2022-08-07T08:44:04.803Z,0.78
2022-08-07T08:45:06.790Z,0.78
2022-08-07T08:46:08.745Z,0.49
2022-08-07T08:47:11.334Z,0.55
2022-08-07T08:48:12.739Z,0.95
2022-08-07T08:49:14.803Z,0.57
2022-08-07T08:50:28.117Z,0.78
2022-08-07T08:51:23.217Z,0.87
2022-08-07T08:52:20.797Z,0.9
2022-08-07T08:53:29.372Z,0.4
2022-08-07T08:54:28.828Z,0.65
2022-08-07T08:55:54.154Z,1.18
2022-08-07T08:56:32.773Z,1.12
2022-08-07T08:57:34.752Z,1.06
2022-08-07T08:58:36.763Z,0.99
2022-08-07T08:59:41.951Z,0.36
2022-08-07T09:00:42.533Z,0.41
2022-08-07T09:01:44.035Z,1.13
2022-08-07T09:02:46.194Z,0.76
2022-08-07T09:03:47.828Z,0.38
2022-08-07T09:04:48.822Z,0.22
2022-08-07T09:05:50.848Z,0.6
2022-08-07T09:06:52.772Z,0.99
2022-08-07T09:07:55.221Z,1.49
2022-08-07T09:08:56.771Z,1.84
2022-08-07T09:09:58.782Z,1.34
2022-08-07T09:11:00.987Z,0.72
2022-08-07T09:12:20.399Z,0.26
2022-08-07T09:13:04.165Z,0.42
2022-08-07T09:14:05.316Z,0.37
2022-08-07T09:16:21.063Z,0.81
2022-08-07T09:16:21.088Z,0.34
2022-08-07T09:17:09.213Z,0.27
2022-08-07T09:18:13.442Z,1.39
2022-08-07T09:19:50.601Z,1.55
2022-08-07T09:20:24.945Z,1.26
2022-08-07T09:21:34.615Z,0.85
2022-08-07T09:22:22.792Z,0.93
2022-08-07T09:24:29.860Z,0.56
2022-08-07T09:24:29.870Z,0.25
2022-08-07T09:25:24.307Z,0.55
2022-08-07T09:26:25.815Z,0.55
2022-08-07T09:27:28.855Z,0.58
2022-08-07T09:29:24.671Z,0.34
2022-08-07T09:30:02.707Z,0.42
2022-08-07T09:30:33.840Z,0.62
2022-08-07T09:31:38.725Z,0.49
2022-08-07T09:32:37.985Z,0.63
2022-08-07T09:33:41.437Z,0.6
2022-08-07T09:34:41.822Z,0.52
2022-08-07T09:36:01.797Z,0.86
2022-08-07T09:36:49.780Z,0.63
2022-08-07T09:37:53.793Z,0.31
2022-08-07T09:38:50.066Z,0.54
2022-08-07T09:39:53.250Z,0.22
2022-08-07T09:40:51.245Z,0.55
2022-08-07T09:41:58.801Z,0.3
2022-08-07T09:42:53.893Z,0.99
2022-08-07T09:44:03.237Z,1.26
2022-08-07T09:46:28.512Z,0.86
2022-08-07T09:47:26.495Z,0.3
2022-08-07T09:47:26.543Z,0.79
2022-08-07T09:48:11.937Z,0.77
2022-08-07T09:50:00.303Z,0.67
2022-08-07T09:50:19.404Z,1.65
2022-08-07T09:52:09.603Z,1.47
2022-08-07T09:52:34.713Z,1.33
2022-08-07T09:53:24.339Z,0.73
2022-08-07T09:54:28.460Z,0.74
2022-08-07T09:56:03.046Z,0.56
2022-08-07T09:56:37.773Z,0.73
2022-08-07T09:57:37.299Z,0.2
2022-08-07T09:58:41.505Z,0
2022-08-07T09:59:46.641Z,0.39
2022-08-07T10:00:45.673Z,0.23
2022-08-07T10:01:50.900Z,0.58
2022-08-07T10:02:55.044Z,0.72
2022-08-07T10:04:04.658Z,0.63
2022-08-07T10:04:57.263Z,0.3
2022-08-07T10:06:02.680Z,0.29
2022-08-07T10:07:01.818Z,0.44
2022-08-07T10:08:04.526Z,0.53
2022-08-07T10:09:06.279Z,0.55
2022-08-07T10:10:11.998Z,1.05
2022-08-07T10:11:17.354Z,0.76
2022-08-07T10:12:19.798Z,0.41
2022-08-07T10:13:29.902Z,0.74
2022-08-07T10:14:22.944Z,0.5
2022-08-07T10:15:24.604Z,0.46
2022-08-07T10:16:26.847Z,0.31
2022-08-07T10:17:33.839Z,0.54
2022-08-07T10:18:32.372Z,1.17
2022-08-07T10:19:37.710Z,0.77
2022-08-07T10:20:38.366Z,0.78
2022-08-07T10:21:51.040Z,1.26
2022-08-07T10:22:45.272Z,0.9
2022-08-07T10:24:04.366Z,1.13
2022-08-07T10:24:52.221Z,0.62
2022-08-07T10:25:53.319Z,0.18
2022-08-07T10:26:57.792Z,0.65
2022-08-07T10:28:00.697Z,0.31
2022-08-07T10:29:02.514Z,0.31
2022-08-07T10:30:05.033Z,0.77
2022-08-07T10:31:11.106Z,0.92
2022-08-07T10:32:16.570Z,1.54
2022-08-07T10:33:12.962Z,1.52
2022-08-07T10:34:14.414Z,1.62
2022-08-07T10:35:16.552Z,1.37
2022-08-07T10:36:17.273Z,0.68
2022-08-07T10:37:18.950Z,0.57
2022-08-07T10:38:35.618Z,0.43
2022-08-07T10:39:22.411Z,0.36
2022-08-07T10:40:23.392Z,0.27
2022-08-07T10:41:46.224Z,0.9
2022-08-07T10:42:31.032Z,0.53
2022-08-07T10:43:29.903Z,0.54
2022-08-07T10:44:38.139Z,0.49
2022-08-07T10:45:45.486Z,0.43
2022-08-07T10:46:32.570Z,0.55
2022-08-07T10:47:53.026Z,0.78
2022-08-07T10:48:37.925Z,1.39
2022-08-07T10:49:45.426Z,1.6
2022-08-07T10:50:42.031Z,1.35
2022-08-07T10:51:57.864Z,1.06
2022-08-07T10:52:48.585Z,1.99
2022-08-07T10:53:47.994Z,0.53
2022-08-07T10:54:53.267Z,0.17
2022-08-07T10:55:53.404Z,0.62
2022-08-07T10:56:54.258Z,0.52
2022-08-07T10:57:56.239Z,0.5
2022-08-07T10:58:59.409Z,0.34
2022-08-07T10:59:59.406Z,0.26
2022-08-07T11:01:00.882Z,0.33
2022-08-07T11:02:05.548Z,0.47
2022-08-07T11:03:04.286Z,0.51
2022-08-07T11:04:16.901Z,0.66
2022-08-07T11:05:10.188Z,0.6
2022-08-07T11:06:11.034Z,1.26
2022-08-07T11:07:14.827Z,0.5
2022-08-07T11:08:16.390Z,0.46
2022-08-07T11:10:08.190Z,0.33
2022-08-07T11:10:18.448Z,0.35
2022-08-07T11:11:20.308Z,0.47
2022-08-07T11:12:31.435Z,0.6
2022-08-07T11:14:42.823Z,1.27
2022-08-07T11:14:46.631Z,1.17
2022-08-07T11:15:31.736Z,1.27
2022-08-07T11:16:29.987Z,0.52
2022-08-07T11:17:43.032Z,0.64
2022-08-07T11:18:30.880Z,0.3
2022-08-07T11:19:32.094Z,1.34
2022-08-07T11:20:34.055Z,1.07
2022-08-07T11:21:40.629Z,1
2022-08-07T11:22:44.178Z,0.48
2022-08-07T11:23:39.457Z,0.25
2022-08-07T11:24:45.323Z,0.18
2022-08-07T11:25:48.088Z,0.1
2022-08-07T11:26:48.403Z,0.32
2022-08-07T11:28:02.180Z,0.1
2022-08-07T11:28:51.376Z,0.29
2022-08-07T11:29:50.998Z,0.56
2022-08-07T11:30:48.489Z,0.54
2022-08-07T11:31:49.415Z,0.22
2022-08-07T11:32:50.432Z,0.35
2022-08-07T11:33:54.443Z,0.24
2022-08-07T11:34:53.084Z,1.1
2022-08-07T11:35:59.269Z,1.6
2022-08-07T11:36:57.073Z,0.64
2022-08-07T11:38:10.555Z,0.48
2022-08-07T11:38:59.431Z,0.65
2022-08-07T11:40:01.962Z,0.68
2022-08-07T11:41:02.231Z,0.88
2022-08-07T11:42:04.069Z,1.74
2022-08-07T11:43:06.069Z,0.85
2022-08-07T11:44:11.561Z,1.04
2022-08-07T11:45:10.111Z,1.13
2022-08-07T11:46:12.082Z,1.16
2022-08-07T11:47:14.064Z,0.92
2022-08-07T11:48:18.366Z,0.86
2022-08-07T11:49:28.898Z,0.78
2022-08-07T11:50:32.162Z,1.07
2022-08-07T11:51:41.052Z,0.52
2022-08-07T11:52:29.210Z,0.25
2022-08-07T11:53:25.377Z,0.25
2022-08-07T11:58:24.957Z,0.71
2022-08-07T12:00:08.521Z,0.79
2022-08-07T12:00:27.698Z,0.55
2022-08-07T12:01:29.556Z,1.05
2022-08-07T12:02:30.864Z,1.96
2022-08-07T12:03:41.238Z,1.26
2022-08-07T12:04:34.150Z,0.72
2022-08-07T12:05:41.826Z,0.22
2022-08-07T12:06:39.432Z,0.46
2022-08-07T12:07:38.847Z,0.48
2022-08-07T12:08:38.509Z,0.6
2022-08-07T12:09:39.563Z,0.54
2022-08-07T12:10:41.788Z,0.53
2022-08-07T12:11:43.316Z,0.79
2022-08-07T12:12:44.126Z,0.76
2022-08-07T12:13:47.660Z,1.09
2022-08-07T12:14:51.551Z,0.74
2022-08-07T12:16:05.516Z,0.84
2022-08-07T12:16:50.532Z,0.45
2022-08-07T12:17:57.845Z,0.14
2022-08-07T12:18:54.069Z,0.25
2022-08-07T12:19:56.943Z,0.46
2022-08-07T12:20:56.512Z,0.21
2022-08-07T12:22:36.870Z,0.44
2022-08-07T12:22:59.063Z,0.67
2022-08-07T12:24:05.205Z,0.67
2022-08-07T12:25:02.147Z,0.51
2022-08-07T12:26:21.656Z,1.22
2022-08-07T12:27:04.151Z,1.3
2022-08-07T12:28:10.025Z,1.42
2022-08-07T12:29:08.191Z,0.85
2022-08-07T12:30:10.285Z,1.28
2022-08-07T12:31:17.280Z,1.57
2022-08-07T12:32:14.274Z,0.9
2022-08-07T12:33:19.020Z,0.73
2022-08-07T12:34:16.608Z,0.18
2022-08-07T12:35:17.530Z,0.27
2022-08-07T12:36:18.531Z,1.01
2022-08-07T12:37:23.228Z,0.54
2022-08-07T12:38:30.693Z,0.56
2022-08-07T12:39:43.500Z,0.56
2022-08-07T12:40:47.030Z,0.58
2022-08-07T12:41:24.267Z,0.79
2022-08-07T12:42:27.443Z,0.4
2022-08-07T12:43:50.783Z,0.32
2022-08-07T12:44:27.603Z,0.81
2022-08-07T12:45:28.581Z,0.47
2022-08-07T12:46:32.599Z,0.17
2022-08-07T12:47:31.018Z,0.69
2022-08-07T12:48:41.282Z,0.68
2022-08-07T12:49:40.384Z,0.56
2022-08-07T12:50:39.827Z,0.62
2022-08-07T12:51:46.855Z,0.45
2022-08-07T12:52:36.213Z,0.72
2022-08-07T12:54:02.575Z,0.66
2022-08-07T12:54:41.238Z,0.97
2022-08-07T12:56:03.210Z,1.45
2022-08-07T12:56:44.249Z,0.83
2022-08-07T12:58:00.596Z,0.44
2022-08-07T12:58:53.084Z,0.25
2022-08-07T12:59:54.011Z,0.41
2022-08-07T13:00:50.839Z,0.16
2022-08-07T13:01:50.658Z,0.7
2022-08-07T13:02:52.213Z,0.75
2022-08-07T13:04:00.591Z,0.48
2022-08-07T13:05:01.329Z,0.7
2022-08-07T13:06:02.389Z,0.36
2022-08-07T13:07:01.435Z,0.82
2022-08-07T13:08:13.154Z,1.53
2022-08-07T13:09:01.215Z,1.85
2022-08-07T13:10:22.202Z,0.72
2022-08-07T13:11:03.661Z,0.67
2022-08-07T13:12:09.854Z,1.05
2022-08-07T13:13:07.232Z,1.45
2022-08-07T13:14:09.255Z,0.55
2022-08-07T13:15:10.647Z,0.22
2022-08-07T13:16:11.694Z,0.21
2022-08-07T13:17:12.615Z,0.63
2022-08-07T13:18:26.007Z,0.44
2022-08-07T13:19:18.323Z,0.49
2022-08-07T13:20:15.619Z,0.45
2022-08-07T13:21:37.950Z,0.31
2022-08-07T13:22:20.064Z,0.48
2022-08-07T13:24:00.441Z,0.58
2022-08-07T13:24:19.635Z,0.51
2022-08-07T13:25:24.019Z,1.2
2022-08-07T13:26:25.511Z,1.87
2022-08-07T13:27:25.265Z,1.32
2022-08-07T13:28:27.371Z,1.06
2022-08-07T13:29:34.577Z,0.95
2022-08-07T13:30:39.781Z,0.63
2022-08-07T13:31:46.307Z,0.82
2022-08-07T13:32:35.123Z,0.43
2022-08-07T13:34:14.598Z,0.35
2022-08-07T13:34:37.186Z,0.46
2022-08-07T13:36:00.101Z,0.32
2022-08-07T13:36:40.547Z,0.9
2022-08-07T13:37:42.274Z,0.87
2022-08-07T13:38:44.386Z,0.91
2022-08-07T13:39:49.672Z,0.74
2022-08-07T13:40:47.738Z,0
2022-08-07T13:41:48.712Z,0.16
2022-08-07T13:42:49.679Z,0.36
2022-08-07T13:43:52.282Z,0.98
2022-08-07T13:44:55.541Z,0.47
2022-08-07T13:46:07.834Z,0.4
2022-08-07T13:46:55.306Z,0.41
2022-08-07T13:48:05.710Z,1.12
2022-08-07T13:48:59.653Z,0.74
2022-08-07T13:50:32.491Z,1.25
2022-08-07T13:51:20.570Z,1.08
2022-08-07T13:52:23.223Z,0.88
2022-08-07T13:53:07.310Z,0.71
2022-08-07T13:54:09.307Z,1.89
2022-08-07T13:55:13.290Z,1.64
2022-08-07T13:56:13.321Z,1
2022-08-07T13:57:24.000Z,0.98
2022-08-07T13:58:20.501Z,0.8
2022-08-07T13:59:18.688Z,0.25
2022-08-07T14:00:26.559Z,0.28
2022-08-07T14:01:22.091Z,0.18
2022-08-07T14:02:29.647Z,0.38
2022-08-07T14:03:29.299Z,0.63
2022-08-07T14:04:29.660Z,0.89
2022-08-07T14:05:29.101Z,1.13
2022-08-07T14:06:30.359Z,0.56
2022-08-07T14:07:32.406Z,1.01
2022-08-07T14:08:34.338Z,0.4
2022-08-07T14:10:03.298Z,0.55
2022-08-07T14:10:41.658Z,0.41
2022-08-07T14:11:54.014Z,0.53
2022-08-07T14:12:49.390Z,0.49
2022-08-07T14:13:45.122Z,0.22
2022-08-07T14:14:46.355Z,0.73
2022-08-07T14:15:50.665Z,0.28
2022-08-07T14:16:50.598Z,0.41